createdAt,value
2018-03-07T00:01:41.310Z,49.57
2018-03-07T00:04:09.472Z,48.87
2018-03-07T00:06:37.560Z,49.17
2018-03-07T00:09:05.960Z,52.53
2018-03-07T00:11:41.361Z,47.70
2018-03-07T00:14:09.498Z,51.77
2018-03-07T00:16:38.389Z,50.97
2018-03-07T00:19:11.594Z,51.97
2018-03-07T00:21:42.986Z,50.13
2018-03-07T00:24:11.197Z,49.90
2018-03-07T00:26:39.397Z,52.57
2018-03-07T00:29:07.816Z,51.30
2018-03-07T00:31:36.628Z,48.43
2018-03-07T00:34:04.824Z,52.03
2018-03-07T00:36:33.055Z,51.60
2018-03-07T00:39:07.300Z,54.37
2018-03-07T00:41:42.579Z,52.07
2018-03-07T00:44:10.723Z,53.40
2018-03-07T00:46:38.858Z,54.17
2018-03-07T00:49:07.164Z,55.40
2018-03-07T00:51:35.506Z,52.00
2018-03-07T00:54:09.396Z,51.73
2018-03-07T00:56:37.534Z,52.13
2018-03-07T00:59:05.663Z,53.40
2018-03-07T01:01:33.963Z,54.97
2018-03-07T01:04:02.128Z,56.60
2018-03-07T01:06:30.268Z,54.47
2018-03-07T01:08:58.499Z,55.20
2018-03-07T01:11:27.437Z,54.93
2018-03-07T01:13:55.675Z,53.37
2018-03-07T01:16:23.831Z,53.70
2018-03-07T01:18:52.122Z,56.33
2018-03-07T01:21:20.357Z,52.27
2018-03-07T01:23:49.150Z,57.80
2018-03-07T01:26:24.836Z,54.00
2018-03-07T01:28:53.018Z,55.70
2018-03-07T01:31:21.190Z,54.57
2018-03-07T01:33:49.304Z,56.10
2018-03-07T01:36:17.474Z,52.07
2018-03-07T01:38:45.570Z,54.53
2018-03-07T01:41:13.803Z,54.57
2018-03-07T01:43:41.923Z,53.97
2018-03-07T01:46:10.106Z,57.40
2018-03-07T01:48:38.373Z,53.80
2018-03-07T01:51:07.461Z,57.70
2018-03-07T01:53:40.797Z,57.67
2018-03-07T01:56:10.392Z,56.97
2018-03-07T01:58:38.511Z,54.40
2018-03-07T02:01:06.717Z,53.10
2018-03-07T02:03:41.919Z,53.90
2018-03-07T02:06:10.093Z,54.10
2018-03-07T02:08:38.261Z,54.10
2018-03-07T02:11:06.640Z,56.00
2018-03-07T02:13:38.042Z,54.13
2018-03-07T02:16:08.276Z,56.07
2018-03-07T02:18:37.201Z,52.80
2018-03-07T02:21:05.425Z,54.70
2018-03-07T02:23:33.731Z,54.57
2018-03-07T02:26:01.951Z,55.23
2018-03-07T02:28:31.779Z,55.30
2018-03-07T02:31:00.140Z,56.27
2018-03-07T02:33:28.388Z,54.20
2018-03-07T02:35:57.287Z,54.77
2018-03-07T02:38:26.141Z,53.17
2018-03-07T02:40:54.273Z,54.97
2018-03-07T02:43:22.476Z,52.47
2018-03-07T02:45:50.617Z,56.60
2018-03-07T02:48:18.800Z,54.00
2018-03-07T02:50:52.201Z,55.67
2018-03-07T02:53:21.267Z,55.80
2018-03-07T02:55:49.427Z,55.37
2018-03-07T02:58:17.540Z,58.13
2018-03-07T03:00:45.737Z,54.53
2018-03-07T03:03:14.864Z,55.80
2018-03-07T03:05:43.668Z,59.40
2018-03-07T03:08:11.957Z,52.23
2018-03-07T03:13:14.791Z,54.67
2018-03-07T03:15:43.737Z,54.30
2018-03-07T03:18:13.784Z,53.87
2018-03-07T03:20:42.769Z,54.77
2018-03-07T03:23:10.888Z,57.70
2018-03-07T03:25:39.090Z,52.10
2018-03-07T03:28:07.244Z,53.57
2018-03-07T03:30:35.446Z,56.60
2018-03-07T03:33:10.434Z,54.90
2018-03-07T03:35:39.722Z,55.83
2018-03-07T03:38:08.080Z,56.57
2018-03-07T03:40:38.536Z,56.00
2018-03-07T03:43:08.243Z,55.27
2018-03-07T03:45:36.569Z,55.87
2018-03-07T03:48:05.516Z,53.23
2018-03-07T03:50:33.745Z,55.67
2018-03-07T03:53:03.220Z,56.70
2018-03-07T03:55:32.576Z,56.47
2018-03-07T03:58:01.246Z,54.07
2018-03-07T04:00:30.516Z,56.10
2018-03-07T04:02:58.671Z,56.37
2018-03-07T04:05:26.860Z,56.63
2018-03-07T04:07:55.764Z,55.83
2018-03-07T04:10:26.257Z,56.43
2018-03-07T04:12:54.469Z,56.23
2018-03-07T04:15:22.713Z,58.77
2018-03-07T04:17:50.850Z,55.00
2018-03-07T04:20:18.985Z,55.17
2018-03-07T04:22:47.240Z,57.80
2018-03-07T04:25:36.262Z,56.90
2018-03-07T04:28:11.639Z,54.50
2018-03-07T04:30:39.914Z,56.67
2018-03-07T04:33:09.048Z,56.33
2018-03-07T04:35:37.797Z,56.63
2018-03-07T04:38:06.786Z,56.83
2018-03-07T04:40:34.926Z,59.00
2018-03-07T04:43:03.102Z,56.97
2018-03-07T04:45:34.241Z,57.57
2018-03-07T04:48:02.957Z,58.83
2018-03-07T04:50:31.089Z,56.77
2018-03-07T04:53:00.082Z,57.83
2018-03-07T04:55:28.448Z,59.10
2018-03-07T04:57:56.586Z,58.20
2018-03-07T05:00:25.798Z,60.90
2018-03-07T05:02:55.449Z,55.43
2018-03-07T05:05:27.411Z,58.10
2018-03-07T05:07:56.405Z,58.30
2018-03-07T05:10:24.568Z,59.07
2018-03-07T05:12:53.461Z,60.47
2018-03-07T05:15:22.571Z,58.30
2018-03-07T05:17:50.748Z,58.03
2018-03-07T05:20:19.274Z,59.50
2018-03-07T05:22:47.513Z,56.73
2018-03-07T05:25:15.688Z,57.07
2018-03-07T05:27:43.935Z,59.87
2018-03-07T05:30:12.244Z,58.20
2018-03-07T05:32:40.396Z,57.63
2018-03-07T05:35:08.662Z,60.80
2018-03-07T05:37:37.674Z,56.33
2018-03-07T05:40:06.293Z,60.27
2018-03-07T05:42:34.540Z,60.23
2018-03-07T05:45:02.713Z,59.47
2018-03-07T05:47:30.944Z,59.90
2018-03-07T05:49:59.135Z,60.67
2018-03-07T05:52:27.299Z,61.47
2018-03-07T05:54:55.556Z,62.30
2018-03-07T05:57:23.787Z,61.40
2018-03-07T05:59:52.671Z,59.13
2018-03-07T06:02:21.582Z,61.63
2018-03-07T06:04:49.775Z,61.30
2018-03-07T06:07:17.886Z,60.17
2018-03-07T06:09:46.108Z,62.43
2018-03-07T06:12:14.313Z,63.00
2018-03-07T06:14:42.508Z,61.80
2018-03-07T06:17:11.508Z,60.43
2018-03-07T06:19:40.992Z,62.27
2018-03-07T06:22:09.992Z,57.60
2018-03-07T06:24:40.126Z,59.70
2018-03-07T06:27:09.156Z,60.10
2018-03-07T06:29:37.771Z,61.90
2018-03-07T06:32:06.816Z,66.83
2018-03-07T06:34:35.009Z,65.67
2018-03-07T06:37:03.227Z,60.40
2018-03-07T06:39:35.142Z,65.50
2018-03-07T06:42:03.355Z,61.87
2018-03-07T06:44:31.469Z,63.73
2018-03-07T06:47:11.895Z,67.03
2018-03-07T06:49:40.936Z,66.40
2018-03-07T06:52:10.023Z,66.60
2018-03-07T06:54:38.911Z,65.83
2018-03-07T06:57:07.147Z,64.67
2018-03-07T06:59:36.072Z,66.67
2018-03-07T07:02:05.169Z,68.40
2018-03-07T07:04:33.284Z,66.83
2018-03-07T07:07:01.521Z,68.73
2018-03-07T07:09:31.790Z,69.17
2018-03-07T07:12:06.131Z,71.60
2018-03-07T07:14:34.250Z,68.93
2018-03-07T07:17:04.247Z,68.00
2018-03-07T07:19:33.145Z,71.00
2018-03-07T07:22:01.985Z,70.20
2018-03-07T07:24:30.657Z,70.20
2018-03-07T07:27:00.546Z,66.87
2018-03-07T07:29:28.868Z,70.70
2018-03-07T07:31:57.413Z,69.67
2018-03-07T07:34:26.225Z,74.53
2018-03-07T07:36:54.733Z,71.10
2018-03-07T07:39:24.956Z,73.70
2018-03-07T07:41:53.939Z,74.83
2018-03-07T07:44:22.796Z,75.07
2018-03-07T07:46:54.292Z,80.67
2018-03-07T07:49:26.655Z,76.17
2018-03-07T07:51:58.653Z,78.53
2018-03-07T07:54:28.655Z,78.37
2018-03-07T07:56:56.868Z,78.60
2018-03-07T07:59:25.691Z,75.60
2018-03-07T08:01:53.885Z,78.20
2018-03-07T08:04:22.311Z,79.10
2018-03-07T08:06:51.399Z,73.83
2018-03-07T08:12:14.987Z,79.47
2018-03-07T08:14:43.603Z,76.77
2018-03-07T08:17:13.996Z,71.53
2018-03-07T08:19:42.918Z,76.50
2018-03-07T08:22:11.972Z,75.87
2018-03-07T08:24:43.509Z,71.67
2018-03-07T08:27:12.562Z,76.83
2018-03-07T08:29:42.761Z,74.10
2018-03-07T08:32:10.893Z,76.37
2018-03-07T08:34:42.880Z,73.90
2018-03-07T08:37:11.391Z,75.90
2018-03-07T08:39:41.467Z,74.70
2018-03-07T08:42:10.458Z,71.30
2018-03-07T08:44:40.308Z,81.77
2018-03-07T08:47:08.773Z,75.60
2018-03-07T08:49:39.806Z,73.47
2018-03-07T08:52:08.829Z,71.13
2018-03-07T08:54:37.039Z,78.63
2018-03-07T08:57:06.180Z,80.20
2018-03-07T08:59:35.326Z,75.40
2018-03-07T09:02:03.562Z,77.27
2018-03-07T09:04:36.967Z,80.07
2018-03-07T09:07:06.203Z,77.50
2018-03-07T09:09:34.386Z,79.40
2018-03-07T09:12:02.528Z,75.37
2018-03-07T09:14:30.721Z,75.27
2018-03-07T09:16:58.867Z,72.43
2018-03-07T09:19:27.012Z,71.90
2018-03-07T09:21:56.613Z,74.80
2018-03-07T09:24:30.695Z,75.70
2018-03-07T09:26:58.918Z,71.80
2018-03-07T09:29:32.501Z,78.90
2018-03-07T09:32:00.672Z,76.63
2018-03-07T09:34:28.786Z,76.30
2018-03-07T09:36:57.023Z,76.83
2018-03-07T09:39:25.224Z,73.37
2018-03-07T09:41:53.385Z,75.43
2018-03-07T09:44:21.647Z,73.93
2018-03-07T09:46:49.809Z,71.70
2018-03-07T09:49:18.004Z,75.87
2018-03-07T09:51:46.170Z,74.93
2018-03-07T09:54:17.446Z,75.97
2018-03-07T09:56:45.637Z,73.07
2018-03-07T09:59:14.763Z,68.87
2018-03-07T10:01:42.993Z,70.23
2018-03-07T10:04:11.296Z,71.93
2018-03-07T10:06:40.249Z,70.67
2018-03-07T10:09:08.409Z,74.23
2018-03-07T10:11:36.583Z,75.57
2018-03-07T10:14:05.737Z,74.57
2018-03-07T10:16:33.914Z,66.53
2018-03-07T10:19:02.039Z,73.93
2018-03-07T10:21:33.180Z,74.30
2018-03-07T10:24:01.352Z,70.90
2018-03-07T10:26:29.597Z,68.77
2018-03-07T10:28:57.958Z,64.00
2018-03-07T10:31:26.871Z,69.20
2018-03-07T10:33:56.009Z,68.07
2018-03-07T10:36:24.186Z,68.43
2018-03-07T10:38:52.479Z,65.73
2018-03-07T10:41:20.744Z,68.90
2018-03-07T10:43:49.016Z,66.67
2018-03-07T10:46:18.472Z,69.00
2018-03-07T10:48:46.999Z,64.57
2018-03-07T10:51:15.165Z,69.50
2018-03-07T10:53:43.623Z,65.70
2018-03-07T10:56:13.832Z,58.00
2018-03-07T10:58:42.177Z,65.53
2018-03-07T11:01:11.303Z,64.13
2018-03-07T11:03:39.576Z,64.77
2018-03-07T11:06:13.916Z,64.37
2018-03-07T11:08:42.158Z,64.73
2018-03-07T11:16:54.745Z,64.30
2018-03-07T11:19:33.242Z,63.93
2018-03-07T11:22:01.589Z,63.67
2018-03-07T11:24:29.941Z,63.90
2018-03-07T11:29:58.335Z,63.77
2018-03-07T11:32:27.520Z,61.50
2018-03-07T11:34:59.883Z,59.87
2018-03-07T11:37:28.125Z,59.90
2018-03-07T11:39:56.632Z,61.30
2018-03-07T11:42:24.905Z,58.53
2018-03-07T11:53:23.359Z,55.27
2018-03-07T11:56:11.414Z,55.33
2018-03-07T11:58:39.914Z,52.67
2018-03-07T12:07:27.670Z,51.53
2018-03-07T12:09:57.082Z,52.03
2018-03-07T12:15:20.513Z,55.70
2018-03-07T12:17:49.029Z,53.40
2018-03-07T12:23:31.547Z,54.40
2018-03-07T12:26:00.711Z,57.00
2018-03-07T12:28:31.010Z,54.97
2018-03-07T12:30:59.615Z,55.60
2018-03-07T12:33:36.327Z,56.03
2018-03-07T12:36:15.388Z,55.20
2018-03-07T12:39:00.256Z,54.33
2018-03-07T12:41:28.462Z,52.10
2018-03-07T12:47:12.049Z,54.57
2018-03-07T12:49:43.003Z,55.63
2018-03-07T12:52:13.473Z,53.90
2018-03-07T12:54:42.479Z,55.10
2018-03-07T12:57:13.976Z,57.30
2018-03-07T12:59:43.084Z,55.60
2018-03-07T13:02:14.173Z,56.80
2018-03-07T13:04:42.606Z,54.23
2018-03-07T13:07:11.336Z,52.73
2018-03-07T13:09:39.512Z,53.60
2018-03-07T13:14:40.973Z,51.57
2018-03-07T13:17:09.161Z,54.83
2018-03-07T13:19:44.557Z,52.80
2018-03-07T13:22:12.758Z,54.40
2018-03-07T13:24:42.860Z,54.07
2018-03-07T13:27:12.693Z,48.90
2018-03-07T13:29:41.497Z,52.57
2018-03-07T13:32:09.713Z,52.60
2018-03-07T13:34:38.408Z,52.87
2018-03-07T13:37:13.052Z,54.00
2018-03-07T13:39:41.631Z,49.60
2018-03-07T13:44:42.760Z,54.43
2018-03-07T13:47:11.999Z,56.43
2018-03-07T13:52:12.883Z,54.17
2018-03-07T13:54:41.501Z,52.67
2018-03-07T13:57:10.699Z,52.20
2018-03-07T13:59:38.944Z,50.70
2018-03-07T14:02:07.585Z,52.20
2018-03-07T14:07:17.700Z,52.77
2018-03-07T14:09:46.082Z,50.83
2018-03-07T14:12:15.268Z,51.73
2018-03-07T14:14:44.556Z,52.57
2018-03-07T14:17:13.227Z,48.53
2018-03-07T14:19:41.378Z,49.07
2018-03-07T14:22:10.317Z,49.87
2018-03-07T14:24:38.604Z,45.67
2018-03-07T14:29:40.176Z,50.50
2018-03-07T14:32:11.043Z,48.97
2018-03-07T14:34:40.481Z,49.30
2018-03-07T14:37:08.848Z,48.90
2018-03-07T14:42:09.968Z,49.80
2018-03-07T14:44:38.193Z,49.70
2018-03-07T14:47:06.469Z,48.20
2018-03-07T14:49:35.667Z,51.30
2018-03-07T14:52:10.747Z,49.13
2018-03-07T14:54:38.955Z,50.23
2018-03-07T14:57:07.175Z,45.27
2018-03-07T14:59:36.392Z,50.97
2018-03-07T15:04:37.017Z,50.20
2018-03-07T15:07:05.217Z,51.27
2018-03-07T15:09:33.582Z,46.53
2018-03-07T15:12:12.157Z,47.93
2018-03-07T15:14:40.476Z,47.87
2018-03-07T15:17:13.577Z,48.80
2018-03-07T15:19:43.054Z,47.23
2018-03-07T15:22:13.596Z,48.13
2018-03-07T15:24:42.684Z,49.27
2018-03-07T15:27:11.767Z,46.37
2018-03-07T15:29:39.894Z,48.77
2018-03-07T15:32:15.883Z,42.10
2018-03-07T15:34:55.304Z,46.80
2018-03-07T15:37:25.419Z,46.27
2018-03-07T15:42:26.077Z,46.83
2018-03-07T15:44:58.551Z,46.57
2018-03-07T15:47:27.820Z,47.37
2018-03-07T15:52:28.397Z,47.60
2018-03-07T15:54:56.722Z,44.50
2018-03-07T15:57:29.829Z,42.47
2018-03-07T16:02:59.078Z,41.97
2018-03-07T16:05:27.286Z,42.20
2018-03-07T16:07:58.940Z,40.27
2018-03-07T16:10:41.994Z,42.00
2018-03-07T16:13:12.125Z,40.87
2018-03-07T16:15:40.901Z,42.10
2018-03-07T16:18:16.812Z,42.60
2018-03-07T16:20:47.510Z,41.40
2018-03-07T16:23:29.606Z,39.77
2018-03-07T16:26:01.419Z,44.47
2018-03-07T16:28:31.402Z,42.73
2018-03-07T16:30:59.659Z,41.07
2018-03-07T16:33:38.761Z,39.00
2018-03-07T16:36:09.832Z,42.27
2018-03-07T16:38:39.182Z,40.70
2018-03-07T16:41:09.503Z,44.00
2018-03-07T16:43:37.870Z,40.47
2018-03-07T16:46:06.490Z,41.47
2018-03-07T16:48:37.269Z,44.20
2018-03-07T16:51:11.715Z,41.77
2018-03-07T16:53:40.153Z,42.70
2018-03-07T16:56:09.047Z,36.47
2018-03-07T16:58:37.193Z,37.10
2018-03-07T17:01:06.238Z,35.77
2018-03-07T17:03:48.950Z,33.13
2018-03-07T17:09:13.815Z,32.87
2018-03-07T17:11:41.958Z,32.23
2018-03-07T17:14:10.056Z,32.60
2018-03-07T17:19:29.467Z,33.90
2018-03-07T17:21:57.930Z,32.97
2018-03-07T17:24:45.161Z,33.63
2018-03-07T17:27:13.259Z,34.87
2018-03-07T17:29:43.009Z,35.00
2018-03-07T17:32:12.565Z,33.83
2018-03-07T17:34:42.430Z,36.73
2018-03-07T17:37:12.916Z,35.17
2018-03-07T17:39:41.952Z,32.43
2018-03-07T17:42:10.094Z,34.67
2018-03-07T17:44:38.428Z,36.70
2018-03-07T17:47:06.879Z,35.90
2018-03-07T17:49:39.523Z,35.83
2018-03-07T17:52:07.845Z,36.20
2018-03-07T17:54:36.958Z,37.47
2018-03-07T17:57:05.141Z,34.90
2018-03-07T17:59:33.392Z,33.53
2018-03-07T18:02:05.526Z,36.80
2018-03-07T18:04:43.412Z,33.77
2018-03-07T18:07:11.695Z,36.70
2018-03-07T18:09:39.840Z,42.03
2018-03-07T18:12:09.162Z,53.30
2018-03-07T18:14:38.377Z,57.90
2018-03-07T18:17:06.576Z,55.13
2018-03-07T18:19:49.017Z,52.43
2018-03-07T18:22:18.461Z,53.47
2018-03-07T18:24:46.683Z,51.20
2018-03-07T18:27:15.785Z,45.77
2018-03-07T18:29:44.115Z,46.50
2018-03-07T18:32:12.321Z,41.80
2018-03-07T18:34:40.601Z,38.03
2018-03-07T18:37:08.810Z,38.10
2018-03-07T18:39:37.015Z,39.93
2018-03-07T18:42:05.248Z,41.20
2018-03-07T18:44:34.776Z,37.37
2018-03-07T18:47:13.827Z,37.83
2018-03-07T18:49:42.805Z,36.83
2018-03-07T18:52:11.030Z,38.10
2018-03-07T18:54:39.210Z,37.20
2018-03-07T18:57:07.347Z,34.87
2018-03-07T18:59:35.846Z,31.97
2018-03-07T19:02:04.009Z,28.80
2018-03-07T19:04:32.206Z,32.03
2018-03-07T19:07:00.592Z,31.93
2018-03-07T19:09:29.575Z,30.13
2018-03-07T19:11:58.626Z,30.57
2018-03-07T19:14:26.848Z,30.10
2018-03-07T19:16:55.036Z,31.27
2018-03-07T19:19:24.326Z,30.27
2018-03-07T19:21:52.764Z,29.13
2018-03-07T19:24:21.549Z,31.50
2018-03-07T19:26:49.881Z,29.33
2018-03-07T19:29:19.020Z,30.60
2018-03-07T19:31:47.266Z,30.00
2018-03-07T19:34:15.580Z,29.10
2018-03-07T19:36:44.711Z,28.00
2018-03-07T19:39:13.003Z,27.67
2018-03-07T19:41:41.427Z,30.20
2018-03-07T19:44:09.826Z,27.93
2018-03-07T19:46:38.605Z,27.20
2018-03-07T19:49:07.847Z,27.10
2018-03-07T19:51:40.932Z,28.27
2018-03-07T19:54:09.135Z,28.83
2018-03-07T19:56:37.361Z,29.37
2018-03-07T19:59:12.662Z,29.50
2018-03-07T20:01:41.959Z,31.13
2018-03-07T20:04:10.150Z,30.83
2018-03-07T20:06:38.279Z,30.80
2018-03-07T20:09:06.372Z,28.30
2018-03-07T20:11:34.476Z,30.43
2018-03-07T20:14:02.629Z,30.37
2018-03-07T20:16:31.552Z,31.17
2018-03-07T20:18:59.659Z,31.63
2018-03-07T20:21:27.892Z,30.67
2018-03-07T20:23:58.573Z,32.60
2018-03-07T20:26:26.765Z,32.20
2018-03-07T20:29:00.696Z,33.13
2018-03-07T20:31:28.860Z,34.30
2018-03-07T20:33:56.983Z,35.17
2018-03-07T20:36:25.093Z,34.80
2018-03-07T20:38:53.200Z,36.77
2018-03-07T20:41:21.340Z,34.20
2018-03-07T20:43:49.432Z,32.73
2018-03-07T20:46:18.304Z,32.83
2018-03-07T20:48:55.021Z,33.63
2018-03-07T20:51:23.141Z,34.43
2018-03-07T20:53:51.238Z,32.40
2018-03-07T20:56:19.411Z,34.40
2018-03-07T20:58:47.633Z,32.03
2018-03-07T21:01:16.493Z,32.17
2018-03-07T21:03:44.719Z,28.70
2018-03-07T21:06:12.960Z,29.33
2018-03-07T21:08:41.102Z,32.63
2018-03-07T21:11:10.475Z,32.30
2018-03-07T21:13:38.576Z,31.03
2018-03-07T21:16:06.801Z,31.00
2018-03-07T21:18:46.004Z,28.67
2018-03-07T21:21:14.107Z,31.53
2018-03-07T21:23:42.306Z,33.20
2018-03-07T21:26:10.395Z,33.67
2018-03-07T21:28:38.568Z,32.53
2018-03-07T21:31:07.513Z,35.87
2018-03-07T21:33:36.383Z,34.97
2018-03-07T21:36:04.524Z,38.53
2018-03-07T21:38:32.656Z,37.50
2018-03-07T21:41:00.816Z,38.20
2018-03-07T21:43:32.052Z,37.03
2018-03-07T21:46:00.310Z,37.27
2018-03-07T21:48:28.411Z,39.10
2018-03-07T21:50:56.553Z,37.70
2018-03-07T21:53:24.728Z,35.37
2018-03-07T21:55:52.871Z,36.80
2018-03-07T21:58:28.924Z,40.50
2018-03-07T22:00:57.881Z,37.40
2018-03-07T22:03:26.021Z,35.90
2018-03-07T22:05:54.893Z,39.07
2018-03-07T22:08:23.030Z,36.87
2018-03-07T22:11:04.492Z,38.13
2018-03-07T22:13:32.593Z,35.20
2018-03-07T22:16:00.737Z,37.30
2018-03-07T22:18:28.946Z,36.10
2018-03-07T22:20:57.812Z,36.53
2018-03-07T22:23:25.938Z,39.10
2018-03-07T22:25:54.840Z,37.80
2018-03-07T22:28:23.853Z,39.00
2018-03-07T22:30:51.989Z,40.27
2018-03-07T22:33:20.140Z,39.77
2018-03-07T22:35:48.321Z,39.60
2018-03-07T22:38:16.556Z,39.47
2018-03-07T22:40:44.734Z,41.17
2018-03-07T22:43:12.943Z,41.40
2018-03-07T22:45:41.175Z,37.10
2018-03-07T22:48:09.322Z,39.37
2018-03-07T22:50:45.488Z,39.00
2018-03-07T22:53:13.584Z,39.80
2018-03-07T22:55:41.695Z,39.07
2018-03-07T22:58:09.891Z,39.43
2018-03-07T23:00:43.572Z,40.07
2018-03-07T23:03:12.522Z,40.97
2018-03-07T23:05:43.977Z,43.77
2018-03-07T23:08:12.098Z,43.20
2018-03-07T23:10:40.240Z,44.27
2018-03-07T23:13:08.336Z,40.43
2018-03-07T23:15:36.536Z,44.30
2018-03-07T23:18:23.247Z,43.80
2018-03-07T23:20:51.436Z,45.60
2018-03-07T23:23:23.469Z,42.70
2018-03-07T23:25:51.611Z,45.13
2018-03-07T23:28:20.740Z,43.47
2018-03-07T23:30:48.953Z,45.07
2018-03-07T23:33:17.801Z,45.87
2018-03-07T23:35:51.604Z,45.00
2018-03-07T23:38:19.724Z,47.13
2018-03-07T23:40:47.911Z,49.57
2018-03-07T23:43:16.067Z,47.27
2018-03-07T23:45:44.160Z,49.33
2018-03-07T23:48:12.277Z,51.00
2018-03-07T23:50:41.492Z,49.37
2018-03-07T23:53:09.675Z,51.70
2018-03-07T23:55:37.771Z,47.33
2018-03-07T23:58:06.699Z,49.57
